createdAt,value
2019-02-16T00:01:14.998Z,77.08
2019-02-16T00:03:44.266Z,76.98
2019-02-16T00:06:13.928Z,76.98
2019-02-16T00:08:43.475Z,76.98
2019-02-16T00:11:14.740Z,76.95
2019-02-16T00:13:43.985Z,77.10
2019-02-16T00:16:13.309Z,77.43
2019-02-16T00:18:42.561Z,77.42
2019-02-16T00:21:11.788Z,77.39
2019-02-16T00:23:41.059Z,77.31
2019-02-16T00:26:10.852Z,77.43
2019-02-16T00:28:40.093Z,77.93
2019-02-16T00:31:09.315Z,78.16
2019-02-16T00:33:38.570Z,78.36
2019-02-16T00:36:07.787Z,78.35
2019-02-16T00:38:37.317Z,78.19
2019-02-16T00:41:06.743Z,77.87
2019-02-16T00:43:36.029Z,77.79
2019-02-16T00:46:05.267Z,77.33
2019-02-16T00:48:34.543Z,77.29
2019-02-16T00:51:12.956Z,77.56
2019-02-16T00:53:34.961Z,77.53
2019-02-16T00:56:04.223Z,77.37
2019-02-16T00:58:33.880Z,77.53
2019-02-16T01:01:03.137Z,77.73
2019-02-16T01:03:32.382Z,78.08
2019-02-16T01:06:01.601Z,78.13
2019-02-16T01:08:30.883Z,78.37
2019-02-16T01:11:00.099Z,78.56
2019-02-16T01:13:29.374Z,78.36
2019-02-16T01:15:58.592Z,78.31
2019-02-16T01:18:27.926Z,78.56
2019-02-16T01:20:57.146Z,78.44
2019-02-16T01:23:26.390Z,78.47
2019-02-16T01:25:55.645Z,78.53
2019-02-16T01:28:24.871Z,78.54
2019-02-16T01:30:54.148Z,78.58
2019-02-16T01:33:23.414Z,78.65
2019-02-16T01:35:52.642Z,78.62
2019-02-16T01:38:21.886Z,78.42
2019-02-16T01:40:51.350Z,78.40
2019-02-16T01:43:20.573Z,78.50
2019-02-16T01:45:49.831Z,78.42
2019-02-16T01:48:19.544Z,78.50
2019-02-16T01:50:48.807Z,78.52
2019-02-16T01:53:18.012Z,78.28
2019-02-16T01:55:47.584Z,78.20
2019-02-16T01:58:16.846Z,78.28
2019-02-16T02:00:46.109Z,78.12
2019-02-16T02:03:16.549Z,78.15
2019-02-16T02:05:45.800Z,78.26
2019-02-16T02:08:15.282Z,78.44
2019-02-16T02:10:46.921Z,78.19
2019-02-16T02:13:16.184Z,78.08
2019-02-16T02:15:45.492Z,78.25
2019-02-16T02:18:14.705Z,78.54
2019-02-16T02:20:43.977Z,78.99
2019-02-16T02:23:13.186Z,79.61
2019-02-16T02:25:42.458Z,79.99
2019-02-16T02:28:11.680Z,79.81
2019-02-16T02:30:40.946Z,79.34
2019-02-16T02:33:10.537Z,78.96
2019-02-16T02:35:39.803Z,79.07
2019-02-16T02:38:09.033Z,79.16
2019-02-16T02:40:38.297Z,78.72
2019-02-16T02:43:07.520Z,78.41
2019-02-16T02:45:36.783Z,78.19
2019-02-16T02:48:08.292Z,78.13
2019-02-16T02:50:37.565Z,78.15
2019-02-16T02:53:07.172Z,78.37
2019-02-16T02:55:36.407Z,78.81
2019-02-16T02:58:05.664Z,79.00
2019-02-16T03:00:34.906Z,79.04
2019-02-16T03:03:04.133Z,78.72
2019-02-16T03:05:33.355Z,79.03
2019-02-16T03:08:02.615Z,78.88
2019-02-16T03:10:31.898Z,78.59
2019-02-16T03:13:01.187Z,78.42
2019-02-16T03:15:30.469Z,78.26
2019-02-16T03:17:59.748Z,78.35
2019-02-16T03:20:28.986Z,78.46
2019-02-16T03:23:17.670Z,78.53
2019-02-16T03:26:10.601Z,78.59
2019-02-16T03:28:47.227Z,78.60
2019-02-16T03:32:11.509Z,78.81
2019-02-16T03:34:46.512Z,79.05
2019-02-16T03:37:58.914Z,79.15
2019-02-16T03:40:28.133Z,79.10
2019-02-16T03:42:58.015Z,79.51
2019-02-16T03:45:28.988Z,79.79
2019-02-16T03:47:58.310Z,79.91
2019-02-16T03:50:29.236Z,79.70
2019-02-16T03:52:58.492Z,79.70
2019-02-16T03:55:27.740Z,79.92
2019-02-16T03:57:56.982Z,79.79
2019-02-16T04:00:26.945Z,80.58
2019-02-16T04:02:56.227Z,81.81
2019-02-16T04:05:25.481Z,82.67
2019-02-16T04:07:56.213Z,83.21
2019-02-16T04:10:25.415Z,83.38
2019-02-16T04:12:54.646Z,83.16
2019-02-16T04:15:23.886Z,82.58
2019-02-16T04:17:53.160Z,82.10
2019-02-16T04:20:26.751Z,82.14
2019-02-16T04:22:56.000Z,83.50
2019-02-16T04:25:25.257Z,84.21
2019-02-16T04:27:54.545Z,84.58
2019-02-16T04:30:23.825Z,85.49
2019-02-16T04:32:53.080Z,86.17
2019-02-16T04:35:22.295Z,86.70
2019-02-16T04:37:51.562Z,87.12
2019-02-16T04:40:20.767Z,87.33
2019-02-16T04:42:51.433Z,87.48
2019-02-16T04:45:20.678Z,87.79
2019-02-16T04:47:50.015Z,88.23
2019-02-16T04:50:19.617Z,88.46
2019-02-16T04:52:49.853Z,87.97
2019-02-16T04:55:19.113Z,87.77
2019-02-16T04:57:48.394Z,88.08
2019-02-16T05:00:17.661Z,87.95
2019-02-16T05:02:46.936Z,87.86
2019-02-16T05:05:16.180Z,87.79
2019-02-16T05:07:45.444Z,87.50
2019-02-16T05:10:22.218Z,87.59
2019-02-16T05:12:52.246Z,87.59
2019-02-16T05:15:21.519Z,87.52
2019-02-16T05:17:50.772Z,87.50
2019-02-16T05:20:20.860Z,87.65
2019-02-16T05:22:50.107Z,87.59
2019-02-16T05:25:19.393Z,87.43
2019-02-16T05:27:48.705Z,87.53
2019-02-16T05:30:17.957Z,87.09
2019-02-16T05:32:47.227Z,87.03
2019-02-16T05:35:16.814Z,87.07
2019-02-16T05:37:46.101Z,87.01
2019-02-16T05:40:17.068Z,86.89
2019-02-16T05:42:46.372Z,86.49
2019-02-16T05:45:15.632Z,86.16
2019-02-16T05:47:44.877Z,85.75
2019-02-16T05:50:14.135Z,85.32
2019-02-16T05:52:43.688Z,85.04
2019-02-16T05:55:13.268Z,84.85
2019-02-16T05:57:42.516Z,84.73
2019-02-16T06:00:13.173Z,84.59
2019-02-16T06:02:42.379Z,84.87
2019-02-16T06:05:11.652Z,86.00
2019-02-16T06:07:40.897Z,86.69
2019-02-16T06:10:10.249Z,86.63
2019-02-16T06:12:40.803Z,86.15
2019-02-16T06:15:10.550Z,85.91
2019-02-16T06:17:40.603Z,85.37
2019-02-16T06:20:10.375Z,84.94
2019-02-16T06:22:39.617Z,84.58
2019-02-16T06:25:11.142Z,84.44
2019-02-16T06:27:40.420Z,83.90
2019-02-16T06:30:09.722Z,84.12
2019-02-16T06:32:38.987Z,84.40
2019-02-16T06:35:47.076Z,84.81
2019-02-16T06:38:17.513Z,85.67
2019-02-16T06:40:46.773Z,86.59
2019-02-16T06:43:16.067Z,86.94
2019-02-16T06:45:45.336Z,87.03
2019-02-16T06:48:15.481Z,86.69
2019-02-16T06:50:52.611Z,86.51
2019-02-16T06:53:21.869Z,86.30
2019-02-16T06:56:04.913Z,86.21
2019-02-16T06:58:34.183Z,86.30
2019-02-16T07:01:03.463Z,86.01
2019-02-16T07:03:33.724Z,85.45
2019-02-16T07:06:03.034Z,84.99
2019-02-16T07:08:32.605Z,84.23
2019-02-16T07:11:01.912Z,82.65
2019-02-16T07:13:32.352Z,80.84
2019-02-16T07:16:27.744Z,79.37
2019-02-16T07:19:13.184Z,77.23
2019-02-16T07:21:42.453Z,76.99
2019-02-16T07:24:11.683Z,76.49
2019-02-16T07:26:40.933Z,75.82
2019-02-16T07:29:10.200Z,74.66
2019-02-16T07:31:39.481Z,74.66
2019-02-16T07:34:08.744Z,73.44
2019-02-16T07:36:39.683Z,72.27
2019-02-16T07:39:11.221Z,71.52
2019-02-16T07:41:40.505Z,69.14
2019-02-16T07:44:17.698Z,68.26
2019-02-16T07:46:54.602Z,66.50
2019-02-16T07:49:29.272Z,62.55
2019-02-16T07:52:10.044Z,57.84
2019-02-16T07:55:01.488Z,53.78
2019-02-16T07:57:41.535Z,49.80
2019-02-16T08:00:25.780Z,46.53
2019-02-16T08:03:08.260Z,45.58
2019-02-16T08:06:02.430Z,45.54
2019-02-16T08:08:39.224Z,47.23
2019-02-16T08:11:24.232Z,47.11
2019-02-16T08:13:58.352Z,44.72
2019-02-16T08:16:55.559Z,40.35
2019-02-16T08:19:31.659Z,39.00
2019-02-16T08:22:09.725Z,35.99
2019-02-16T08:24:57.256Z,33.41
2019-02-16T08:28:01.711Z,32.21
2019-02-16T08:30:48.659Z,31.97
2019-02-16T08:33:39.676Z,30.82
2019-02-16T08:36:19.501Z,30.86
2019-02-16T08:39:06.285Z,29.26
2019-02-16T08:41:57.320Z,29.68
2019-02-16T08:44:44.079Z,30.20
2019-02-16T08:47:23.973Z,30.70
2019-02-16T08:50:24.388Z,30.78
2019-02-16T08:53:24.979Z,29.87
2019-02-16T08:56:16.154Z,30.94
2019-02-16T08:59:00.360Z,30.61
2019-02-16T09:01:47.344Z,32.10
2019-02-16T09:04:34.367Z,31.76
2019-02-16T09:07:10.347Z,32.34
2019-02-16T09:10:10.776Z,31.69
2019-02-16T09:12:57.510Z,30.64
2019-02-16T09:15:45.734Z,30.78
2019-02-16T09:18:24.014Z,30.23
2019-02-16T09:21:15.294Z,29.49
2019-02-16T09:23:59.415Z,32.59
2019-02-16T09:26:46.706Z,33.81
2019-02-16T09:29:37.426Z,34.88
2019-02-16T09:32:18.251Z,33.64
2019-02-16T09:35:05.801Z,34.38
2019-02-16T09:37:56.828Z,34.79
2019-02-16T09:40:36.790Z,36.37
2019-02-16T09:43:21.973Z,38.67
2019-02-16T09:46:21.463Z,41.11
2019-02-16T09:49:07.990Z,40.93
2019-02-16T09:52:01.946Z,40.70
2019-02-16T09:54:41.586Z,40.98
2019-02-16T09:57:28.361Z,41.44
2019-02-16T10:00:08.150Z,42.07
2019-02-16T10:02:57.464Z,43.29
2019-02-16T10:05:40.323Z,43.90
2019-02-16T10:08:21.705Z,42.22
2019-02-16T10:11:00.731Z,42.04
2019-02-16T10:13:47.667Z,41.42
2019-02-16T10:16:27.647Z,41.56
2019-02-16T10:19:14.539Z,42.53
2019-02-16T10:21:57.159Z,41.65
2019-02-16T10:24:44.054Z,42.44
2019-02-16T10:27:29.390Z,41.81
2019-02-16T10:30:05.259Z,41.47
2019-02-16T10:32:49.078Z,41.31
2019-02-16T10:35:36.842Z,40.83
2019-02-16T10:38:18.850Z,40.42
2019-02-16T10:41:03.505Z,40.38
2019-02-16T10:43:51.890Z,41.70
2019-02-16T10:46:41.520Z,43.20
2019-02-16T10:49:16.823Z,43.20
2019-02-16T10:52:01.003Z,45.80
2019-02-16T10:54:36.291Z,43.71
2019-02-16T10:57:21.941Z,45.12
2019-02-16T11:00:10.089Z,46.09
2019-02-16T11:02:58.308Z,46.24
2019-02-16T11:05:36.938Z,46.47
2019-02-16T11:08:13.487Z,46.51
2019-02-16T11:11:00.344Z,45.82
2019-02-16T11:13:38.331Z,45.22
2019-02-16T11:16:25.545Z,45.72
2019-02-16T11:19:08.253Z,45.13
2019-02-16T11:21:52.712Z,45.27
2019-02-16T11:24:39.550Z,47.24
2019-02-16T11:27:21.739Z,49.13
2019-02-16T11:30:00.845Z,47.51
2019-02-16T11:32:44.660Z,48.67
2019-02-16T11:35:31.436Z,50.45
2019-02-16T11:38:22.632Z,49.69
2019-02-16T11:41:18.714Z,48.66
2019-02-16T11:44:02.913Z,46.34
2019-02-16T11:47:05.579Z,47.38
2019-02-16T11:49:50.995Z,48.87
2019-02-16T11:52:44.376Z,48.58
2019-02-16T11:55:30.791Z,48.50
2019-02-16T11:58:14.421Z,48.14
2019-02-16T12:01:05.380Z,47.01
2019-02-16T12:03:54.352Z,46.48
2019-02-16T12:06:34.954Z,46.34
2019-02-16T12:09:18.134Z,45.61
2019-02-16T12:11:54.235Z,45.29
2019-02-16T12:14:59.953Z,43.90
2019-02-16T12:17:46.837Z,43.55
2019-02-16T12:20:37.883Z,41.13
2019-02-16T12:23:22.126Z,39.69
2019-02-16T12:26:01.886Z,39.10
2019-02-16T12:28:50.448Z,38.95
2019-02-16T12:31:50.611Z,38.67
2019-02-16T12:34:27.460Z,38.07
2019-02-16T12:37:04.001Z,37.86
2019-02-16T12:39:55.123Z,39.21
2019-02-16T12:42:55.781Z,38.41
2019-02-16T12:45:55.638Z,38.57
2019-02-16T12:48:30.557Z,42.45
2019-02-16T12:51:09.854Z,43.16
2019-02-16T12:53:57.431Z,39.70
2019-02-16T12:56:32.187Z,41.16
2019-02-16T12:59:20.409Z,38.73
2019-02-16T13:02:08.575Z,37.72
2019-02-16T13:04:54.688Z,39.44
2019-02-16T13:07:45.853Z,39.13
2019-02-16T13:10:28.295Z,37.82
2019-02-16T13:13:29.067Z,37.04
2019-02-16T13:16:13.898Z,36.27
2019-02-16T13:19:07.940Z,37.33
2019-02-16T13:22:05.201Z,36.59
2019-02-16T13:24:53.748Z,38.02
2019-02-16T13:27:31.466Z,40.19
2019-02-16T13:30:25.599Z,37.07
2019-02-16T13:33:15.159Z,37.55
2019-02-16T13:36:06.310Z,37.33
2019-02-16T13:39:03.559Z,35.11
2019-02-16T13:41:40.770Z,33.16
2019-02-16T13:44:30.383Z,35.79
2019-02-16T13:47:13.271Z,37.24
2019-02-16T13:50:04.347Z,36.57
2019-02-16T13:52:52.547Z,34.36
2019-02-16T13:55:36.185Z,33.85
2019-02-16T13:58:37.871Z,35.30
2019-02-16T14:01:19.963Z,35.21
2019-02-16T14:04:08.210Z,37.48
2019-02-16T14:07:00.714Z,35.15
2019-02-16T14:09:51.808Z,35.36
2019-02-16T14:12:28.477Z,36.00
2019-02-16T14:15:14.317Z,36.49
2019-02-16T14:17:45.500Z,37.02
2019-02-16T14:20:15.176Z,35.65
2019-02-16T14:22:46.159Z,36.07
2019-02-16T14:25:42.796Z,36.76
2019-02-16T14:28:07.805Z,36.68
2019-02-16T14:30:38.365Z,34.79
2019-02-16T14:33:07.628Z,35.99
2019-02-16T14:35:36.911Z,37.30
2019-02-16T14:38:29.843Z,37.95
2019-02-16T14:40:59.108Z,37.52
2019-02-16T14:43:28.392Z,37.75
2019-02-16T14:45:58.500Z,36.48
2019-02-16T14:48:28.076Z,36.46
2019-02-16T14:50:58.181Z,36.92
2019-02-16T14:53:27.406Z,37.94
2019-02-16T14:55:56.979Z,36.81
2019-02-16T14:58:27.105Z,36.74
2019-02-16T15:00:57.042Z,35.58
2019-02-16T15:03:26.534Z,34.86
2019-02-16T15:05:56.166Z,35.09
2019-02-16T15:08:25.405Z,34.02
2019-02-16T15:10:54.981Z,33.67
2019-02-16T15:13:24.218Z,32.34
2019-02-16T15:15:54.679Z,31.55
2019-02-16T15:18:23.895Z,31.26
2019-02-16T15:20:54.059Z,30.92
2019-02-16T15:23:23.291Z,32.84
2019-02-16T15:26:00.898Z,33.74
2019-02-16T15:28:23.541Z,36.15
2019-02-16T15:30:52.647Z,37.58
2019-02-16T15:33:21.886Z,39.38
2019-02-16T15:35:51.109Z,42.20
2019-02-16T15:38:25.866Z,42.58
2019-02-16T15:40:56.577Z,44.19
2019-02-16T15:43:25.801Z,44.82
2019-02-16T15:45:55.728Z,46.43
2019-02-16T15:48:27.338Z,48.14
2019-02-16T15:50:56.597Z,49.25
2019-02-16T15:53:25.861Z,50.17
2019-02-16T15:55:56.147Z,51.64
2019-02-16T15:58:25.427Z,51.95
2019-02-16T16:00:54.734Z,52.09
2019-02-16T16:03:24.027Z,52.23
2019-02-16T16:05:53.295Z,53.48
2019-02-16T16:08:40.092Z,53.16
2019-02-16T16:11:27.733Z,52.89
2019-02-16T16:14:14.324Z,53.13
2019-02-16T16:16:53.594Z,53.21
2019-02-16T16:19:32.935Z,53.09
2019-02-16T16:22:21.004Z,52.93
2019-02-16T16:25:15.104Z,53.21
2019-02-16T16:28:12.488Z,53.43
2019-02-16T16:30:52.219Z,53.68
2019-02-16T16:33:55.414Z,53.66
2019-02-16T16:36:38.272Z,54.01
2019-02-16T16:39:30.511Z,53.88
2019-02-16T16:42:18.758Z,54.56
2019-02-16T16:45:08.220Z,54.65
2019-02-16T16:47:55.667Z,55.03
2019-02-16T16:50:59.273Z,55.60
2019-02-16T16:53:46.196Z,55.84
2019-02-16T16:56:29.495Z,56.45
2019-02-16T16:59:18.157Z,56.91
2019-02-16T17:01:54.846Z,57.07
2019-02-16T17:04:52.258Z,57.17
2019-02-16T17:07:35.753Z,57.31
2019-02-16T17:10:23.091Z,57.86
2019-02-16T17:13:18.734Z,58.19
2019-02-16T17:16:05.618Z,58.38
2019-02-16T17:19:08.716Z,58.75
2019-02-16T17:21:54.294Z,58.68
2019-02-16T17:24:35.590Z,58.86
2019-02-16T17:27:42.414Z,58.85
2019-02-16T17:30:31.883Z,58.94
2019-02-16T17:33:14.488Z,59.37
2019-02-16T17:36:14.242Z,59.67
2019-02-16T17:38:52.761Z,59.95
2019-02-16T17:41:43.324Z,60.03
2019-02-16T17:44:31.479Z,60.27
2019-02-16T17:47:25.735Z,60.45
2019-02-16T17:50:16.842Z,60.53
2019-02-16T17:53:23.312Z,60.85
2019-02-16T17:56:06.642Z,61.18
2019-02-16T17:58:57.605Z,61.58
2019-02-16T18:01:48.339Z,61.81
2019-02-16T18:04:35.581Z,61.94
2019-02-16T18:07:18.189Z,62.10
2019-02-16T18:10:02.408Z,62.44
2019-02-16T18:13:05.767Z,62.80
2019-02-16T18:16:06.192Z,62.89
2019-02-16T18:18:43.171Z,63.20
2019-02-16T18:21:35.091Z,63.60
2019-02-16T18:24:12.869Z,64.04
2019-02-16T18:27:04.079Z,64.15
2019-02-16T18:30:02.187Z,64.94
2019-02-16T18:32:51.185Z,65.15
2019-02-16T18:35:38.101Z,65.62
2019-02-16T18:38:22.895Z,65.64
2019-02-16T18:41:10.258Z,65.21
2019-02-16T18:44:08.555Z,66.09
2019-02-16T18:47:11.969Z,66.16
2019-02-16T18:50:02.887Z,66.34
2019-02-16T18:52:59.227Z,65.62
2019-02-16T18:55:47.642Z,65.29
2019-02-16T18:58:35.873Z,65.25
2019-02-16T19:01:30.099Z,65.45
2019-02-16T19:04:12.533Z,65.58
2019-02-16T19:07:03.655Z,65.91
2019-02-16T19:10:03.683Z,66.12
2019-02-16T19:12:51.905Z,66.42
2019-02-16T19:15:51.346Z,66.69
2019-02-16T19:18:41.924Z,66.96
2019-02-16T19:21:24.329Z,66.97
2019-02-16T19:24:11.468Z,67.26
2019-02-16T19:26:57.400Z,67.83
2019-02-16T19:29:47.525Z,67.84
2019-02-16T19:32:35.779Z,68.04
2019-02-16T19:35:32.062Z,68.13
2019-02-16T19:38:42.563Z,68.11
2019-02-16T19:41:20.683Z,68.16
2019-02-16T19:44:08.902Z,68.31
2019-02-16T19:47:01.742Z,68.62
2019-02-16T19:49:48.635Z,68.90
2019-02-16T19:52:28.092Z,68.87
2019-02-16T19:55:30.424Z,68.75
2019-02-16T19:58:22.351Z,68.77
2019-02-16T20:01:14.052Z,68.93
2019-02-16T20:04:08.683Z,69.11
2019-02-16T20:06:50.204Z,69.22
2019-02-16T20:09:42.566Z,69.77
2019-02-16T20:12:26.793Z,69.64
2019-02-16T20:15:21.076Z,69.24
2019-02-16T20:18:18.362Z,69.31
2019-02-16T20:20:54.985Z,69.72
2019-02-16T20:23:38.769Z,70.03
2019-02-16T20:26:25.660Z,70.15
2019-02-16T20:29:15.184Z,70.15
2019-02-16T20:32:11.234Z,70.15
2019-02-16T20:34:56.382Z,69.98
2019-02-16T20:37:34.296Z,70.09
2019-02-16T20:40:28.336Z,70.46
2019-02-16T20:43:14.486Z,70.57
2019-02-16T20:45:59.443Z,70.50
2019-02-16T20:49:01.710Z,70.67
2019-02-16T20:51:52.258Z,70.81
2019-02-16T20:54:33.167Z,70.79
2019-02-16T20:57:33.565Z,70.86
2019-02-16T21:00:12.599Z,70.87
2019-02-16T21:03:19.017Z,70.82
2019-02-16T21:06:09.767Z,70.91
2019-02-16T21:09:01.808Z,71.06
2019-02-16T21:11:53.796Z,71.12
2019-02-16T21:14:44.363Z,71.28
2019-02-16T21:17:36.894Z,71.36
2019-02-16T21:20:27.145Z,71.32
2019-02-16T21:23:08.320Z,71.22
2019-02-16T21:25:55.318Z,71.42
2019-02-16T21:28:34.878Z,72.07
2019-02-16T21:31:25.861Z,72.34
2019-02-16T21:34:09.487Z,72.28
2019-02-16T21:36:57.656Z,72.46
2019-02-16T21:39:39.904Z,72.76
2019-02-16T21:42:40.098Z,72.89
2019-02-16T21:45:39.239Z,72.98
2019-02-16T21:48:37.440Z,73.25
2019-02-16T21:51:31.512Z,73.68
2019-02-16T21:54:24.339Z,73.99
2019-02-16T21:57:15.656Z,73.81
2019-02-16T22:00:07.146Z,73.63
2019-02-16T22:03:01.107Z,73.59
2019-02-16T22:05:58.521Z,73.51
2019-02-16T22:08:58.803Z,73.58
2019-02-16T22:11:55.018Z,73.79
2019-02-16T22:14:25.057Z,73.86
2019-02-16T22:16:54.296Z,73.91
2019-02-16T22:19:23.597Z,74.14
2019-02-16T22:21:53.105Z,73.92
2019-02-16T22:24:22.355Z,73.90
2019-02-16T22:26:51.681Z,73.97
2019-02-16T22:29:21.184Z,73.78
2019-02-16T22:31:54.077Z,73.68
2019-02-16T22:34:23.332Z,73.82
2019-02-16T22:36:56.091Z,73.96
2019-02-16T22:39:25.318Z,74.01
2019-02-16T22:41:54.558Z,74.10
2019-02-16T22:44:23.799Z,74.03
2019-02-16T22:46:53.037Z,73.73
2019-02-16T22:49:24.616Z,73.51
2019-02-16T22:51:53.790Z,73.50
2019-02-16T22:54:22.858Z,73.55
2019-02-16T22:56:52.368Z,73.44
2019-02-16T22:59:21.900Z,73.58
2019-02-16T23:01:51.461Z,73.68
2019-02-16T23:04:23.054Z,73.95
2019-02-16T23:06:54.435Z,74.16
2019-02-16T23:09:27.669Z,74.28
2019-02-16T23:11:57.034Z,74.63
2019-02-16T23:14:32.287Z,74.94
2019-02-16T23:17:02.118Z,74.64
2019-02-16T23:19:31.364Z,74.54
2019-02-16T23:22:00.433Z,74.66
2019-02-16T23:24:29.668Z,74.88
2019-02-16T23:27:00.129Z,74.67
2019-02-16T23:29:29.607Z,74.53
2019-02-16T23:31:58.844Z,74.49
2019-02-16T23:34:29.034Z,74.40
2019-02-16T23:36:59.240Z,74.41
2019-02-16T23:39:31.336Z,74.41
2019-02-16T23:42:00.577Z,74.48
2019-02-16T23:44:32.946Z,74.70
2019-02-16T23:47:04.737Z,74.92
2019-02-16T23:49:35.256Z,75.17
2019-02-16T23:52:04.339Z,75.26
2019-02-16T23:54:35.857Z,75.39
2019-02-16T23:57:05.126Z,75.53
2019-02-16T23:59:35.332Z,75.87
